sensor_id;sensor_type;location;lat;lon;timestamp;pressure;altitude;pressure_sealevel;temperature;humidity
39411;BME280;26579;43.238;23.124;2023-02-23T00:02:13;96860.06;;;10.34;54.82
39411;BME280;26579;43.238;23.124;2023-02-23T00:04:40;96860.06;;;10.34;55.07
39411;BME280;26579;43.238;23.124;2023-02-23T00:07:07;96859.09;;;10.35;54.76
39411;BME280;26579;43.238;23.124;2023-02-23T00:09:34;96861.44;;;10.38;54.30
39411;BME280;26579;43.238;23.124;2023-02-23T00:12:01;96864.13;;;10.48;53.52
39411;BME280;26579;43.238;23.124;2023-02-23T00:14:28;96867.75;;;10.56;53.88
39411;BME280;26579;43.238;23.124;2023-02-23T00:16:57;96848.53;;;10.48;53.64
39411;BME280;26579;43.238;23.124;2023-02-23T00:19:23;96862.41;;;10.58;53.19
39411;BME280;26579;43.238;23.124;2023-02-23T00:21:49;96861.91;;;10.64;53.41
39411;BME280;26579;43.238;23.124;2023-02-23T00:24:15;96867.25;;;10.62;53.42
39411;BME280;26579;43.238;23.124;2023-02-23T00:26:41;96852.25;;;10.55;53.05
39411;BME280;26579;43.238;23.124;2023-02-23T00:29:11;96855.56;;;10.57;52.85
39411;BME280;26579;43.238;23.124;2023-02-23T00:31:39;96859.50;;;10.51;53.58
39411;BME280;26579;43.238;23.124;2023-02-23T00:34:06;96861.84;;;10.54;53.94
39411;BME280;26579;43.238;23.124;2023-02-23T00:36:34;96856.34;;;10.48;53.65
39411;BME280;26579;43.238;23.124;2023-02-23T00:39:05;96840.63;;;10.38;53.99
39411;BME280;26579;43.238;23.124;2023-02-23T00:41:31;96853.59;;;10.49;53.95
39411;BME280;26579;43.238;23.124;2023-02-23T00:43:58;96851.19;;;10.36;54.75
39411;BME280;26579;43.238;23.124;2023-02-23T00:46:28;96853.47;;;10.30;54.84
39411;BME280;26579;43.238;23.124;2023-02-23T00:48:57;96849.09;;;10.19;55.22
39411;BME280;26579;43.238;23.124;2023-02-23T00:51:25;96856.94;;;10.08;54.96
39411;BME280;26579;43.238;23.124;2023-02-23T00:53:55;96856.59;;;10.12;55.29
39411;BME280;26579;43.238;23.124;2023-02-23T00:56:21;96854.00;;;10.12;55.42
39411;BME280;26579;43.238;23.124;2023-02-23T00:58:48;96856.44;;;10.14;55.02
39411;BME280;26579;43.238;23.124;2023-02-23T01:01:16;96853.38;;;10.09;55.68
39411;BME280;26579;43.238;23.124;2023-02-23T01:03:43;96857.91;;;10.07;55.57
39411;BME280;26579;43.238;23.124;2023-02-23T01:06:12;96845.41;;;10.01;55.54
39411;BME280;26579;43.238;23.124;2023-02-23T01:08:40;96841.13;;;10.00;55.41
39411;BME280;26579;43.238;23.124;2023-02-23T01:11:08;96853.88;;;10.03;55.75
39411;BME280;26579;43.238;23.124;2023-02-23T01:13:36;96841.28;;;9.98;55.87
39411;BME280;26579;43.238;23.124;2023-02-23T01:16:10;96849.38;;;9.84;56.81
39411;BME280;26579;43.238;23.124;2023-02-23T01:18:38;96845.97;;;9.72;56.73
39411;BME280;26579;43.238;23.124;2023-02-23T01:21:17;96845.28;;;9.59;57.09
39411;BME280;26579;43.238;23.124;2023-02-23T01:23:44;96832.88;;;9.51;56.60
39411;BME280;26579;43.238;23.124;2023-02-23T01:26:24;96848.69;;;9.59;57.14
39411;BME280;26579;43.238;23.124;2023-02-23T01:28:58;96843.88;;;9.55;57.34
39411;BME280;26579;43.238;23.124;2023-02-23T01:31:25;96849.75;;;9.57;57.38
39411;BME280;26579;43.238;23.124;2023-02-23T01:33:56;96845.03;;;9.62;57.19
39411;BME280;26579;43.238;23.124;2023-02-23T01:36:22;96845.63;;;9.65;56.98
39411;BME280;26579;43.238;23.124;2023-02-23T01:38:48;96845.97;;;9.72;56.55
39411;BME280;26579;43.238;23.124;2023-02-23T01:41:15;96834.28;;;9.66;56.42
39411;BME280;26579;43.238;23.124;2023-02-23T01:46:40;96820.25;;;9.58;56.32
39411;BME280;26579;43.238;23.124;2023-02-23T01:49:12;96851.03;;;9.73;56.14
39411;BME280;26579;43.238;23.124;2023-02-23T01:51:42;96839.91;;;9.71;55.97
39411;BME280;26579;43.238;23.124;2023-02-23T01:54:13;96854.66;;;9.82;55.64
39411;BME280;26579;43.238;23.124;2023-02-23T01:56:42;96855.38;;;9.84;55.63
39411;BME280;26579;43.238;23.124;2023-02-23T01:59:11;96859.88;;;9.82;55.54
39411;BME280;26579;43.238;23.124;2023-02-23T02:01:38;96855.97;;;9.77;55.76
39411;BME280;26579;43.238;23.124;2023-02-23T02:04:04;96844.19;;;9.72;55.83
39411;BME280;26579;43.238;23.124;2023-02-23T02:06:34;96840.06;;;9.70;55.93
39411;BME280;26579;43.238;23.124;2023-02-23T02:09:06;96848.34;;;9.64;56.53
39411;BME280;26579;43.238;23.124;2023-02-23T02:11:34;96854.69;;;9.71;56.45
39411;BME280;26579;43.238;23.124;2023-02-23T02:14:29;96858.72;;;9.75;56.17
39411;BME280;26579;43.238;23.124;2023-02-23T02:30:55;96866.34;;;9.44;57.43
39411;BME280;26579;43.238;23.124;2023-02-23T02:41:17;96860.78;;;9.38;57.41
39411;BME280;26579;43.238;23.124;2023-02-23T02:46:26;96857.97;;;9.41;57.51
39411;BME280;26579;43.238;23.124;2023-02-23T02:48:58;96865.41;;;9.45;56.75
39411;BME280;26579;43.238;23.124;2023-02-23T02:56:43;96866.34;;;9.44;57.07
39411;BME280;26579;43.238;23.124;2023-02-23T02:59:12;96850.31;;;9.28;56.90
39411;BME280;26579;43.238;23.124;2023-02-23T03:01:39;96868.00;;;9.45;56.39
39411;BME280;26579;43.238;23.124;2023-02-23T03:04:23;96871.03;;;9.50;56.39
39411;BME280;26579;43.238;23.124;2023-02-23T03:06:57;96867.53;;;9.51;56.16
39411;BME280;26579;43.238;23.124;2023-02-23T03:12:05;96873.28;;;9.55;56.68
39411;BME280;26579;43.238;23.124;2023-02-23T03:15:03;96871.03;;;9.50;56.84
39411;BME280;26579;43.238;23.124;2023-02-23T03:17:44;96883.09;;;9.51;56.83
39411;BME280;26579;43.238;23.124;2023-02-23T03:20:35;96861.50;;;9.40;56.83
39411;BME280;26579;43.238;23.124;2023-02-23T03:23:09;96877.53;;;9.45;57.32
39411;BME280;26579;43.238;23.124;2023-02-23T03:25:49;96885.34;;;9.34;58.09
39411;BME280;26579;43.238;23.124;2023-02-23T03:28:19;96886.53;;;9.29;57.72
39411;BME280;26579;43.238;23.124;2023-02-23T03:31:17;96893.50;;;9.29;57.77
39411;BME280;26579;43.238;23.124;2023-02-23T03:33:55;96860.56;;;9.18;57.47
39411;BME280;26579;43.238;23.124;2023-02-23T03:36:26;96888.06;;;9.32;58.50
39411;BME280;26579;43.238;23.124;2023-02-23T03:42:13;96878.28;;;9.24;57.80
39411;BME280;26579;43.238;23.124;2023-02-23T03:44:44;96882.78;;;9.22;58.01
39411;BME280;26579;43.238;23.124;2023-02-23T03:47:15;96902.59;;;9.35;57.17
39411;BME280;26579;43.238;23.124;2023-02-23T03:49:42;96895.06;;;9.20;57.42
39411;BME280;26579;43.238;23.124;2023-02-23T03:52:15;96895.63;;;9.24;56.83
39411;BME280;26579;43.238;23.124;2023-02-23T03:54:47;96904.50;;;9.21;56.81
39411;BME280;26579;43.238;23.124;2023-02-23T03:57:16;96912.41;;;9.20;56.28
39411;BME280;26579;43.238;23.124;2023-02-23T03:59:47;96893.66;;;9.16;56.08
39411;BME280;26579;43.238;23.124;2023-02-23T04:02:19;96902.25;;;9.17;56.31
39411;BME280;26579;43.238;23.124;2023-02-23T04:04:47;96913.13;;;9.11;56.74
39411;BME280;26579;43.238;23.124;2023-02-23T04:07:16;96899.75;;;9.04;56.51
39411;BME280;26579;43.238;23.124;2023-02-23T04:09:43;96915.94;;;9.19;56.29
39411;BME280;26579;43.238;23.124;2023-02-23T04:12:16;96920.28;;;9.07;56.43
39411;BME280;26579;43.238;23.124;2023-02-23T04:15:09;96903.53;;;9.00;56.74
39411;BME280;26579;43.238;23.124;2023-02-23T04:17:37;96917.34;;;9.12;56.59
39411;BME280;26579;43.238;23.124;2023-02-23T04:20:04;96912.50;;;9.07;56.49
39411;BME280;26579;43.238;23.124;2023-02-23T04:22:30;96921.59;;;9.01;57.23
39411;BME280;26579;43.238;23.124;2023-02-23T04:24:56;96918.66;;;9.06;57.58
39411;BME280;26579;43.238;23.124;2023-02-23T04:27:21;96921.00;;;8.98;57.52
39411;BME280;26579;43.238;23.124;2023-02-23T04:29:47;96916.16;;;8.93;57.26
39411;BME280;26579;43.238;23.124;2023-02-23T04:32:15;96905.03;;;8.80;56.99
39411;BME280;26579;43.238;23.124;2023-02-23T04:34:42;96904.31;;;8.78;57.26
39411;BME280;26579;43.238;23.124;2023-02-23T04:37:08;96910.00;;;8.83;57.42
39411;BME280;26579;43.238;23.124;2023-02-23T04:39:34;96913.88;;;8.77;57.89
39411;BME280;26579;43.238;23.124;2023-02-23T04:42:00;96927.34;;;8.82;57.96
39411;BME280;26579;43.238;23.124;2023-02-23T04:44:25;96926.75;;;8.79;57.48
39411;BME280;26579;43.238;23.124;2023-02-23T04:46:51;96928.28;;;8.70;57.21
39411;BME280;26579;43.238;23.124;2023-02-23T04:49:17;96935.44;;;8.67;57.60
39411;BME280;26579;43.238;23.124;2023-02-23T04:51:42;96924.59;;;8.61;57.32
39411;BME280;26579;43.238;23.124;2023-02-23T04:54:08;96928.09;;;8.60;57.61
39411;BME280;26579;43.238;23.124;2023-02-23T04:56:34;96921.84;;;8.52;57.62
39411;BME280;26579;43.238;23.124;2023-02-23T04:59:00;96933.25;;;8.49;57.64
39411;BME280;26579;43.238;23.124;2023-02-23T05:01:25;96923.22;;;8.45;58.00
39411;BME280;26579;43.238;23.124;2023-02-23T05:03:51;96936.13;;;8.57;58.40
39411;BME280;26579;43.238;23.124;2023-02-23T05:06:17;96938.16;;;8.65;58.41
39411;BME280;26579;43.238;23.124;2023-02-23T05:08:44;96936.94;;;8.58;58.16
39411;BME280;26579;43.238;23.124;2023-02-23T05:11:10;96943.31;;;8.54;58.67
39411;BME280;26579;43.238;23.124;2023-02-23T05:13:36;96943.22;;;8.55;58.56
39411;BME280;26579;43.238;23.124;2023-02-23T05:16:02;96925.38;;;8.51;58.31
39411;BME280;26579;43.238;23.124;2023-02-23T05:18:28;96944.84;;;8.56;58.50
39411;BME280;26579;43.238;23.124;2023-02-23T05:21:01;96942.34;;;8.55;58.95
39411;BME280;26579;43.238;23.124;2023-02-23T05:23:27;96950.59;;;8.49;58.46
39411;BME280;26579;43.238;23.124;2023-02-23T05:25:52;96949.06;;;8.46;58.57
39411;BME280;26579;43.238;23.124;2023-02-23T05:28:18;96950.81;;;8.46;58.91
39411;BME280;26579;43.238;23.124;2023-02-23T05:30:44;96951.66;;;8.46;58.26
39411;BME280;26579;43.238;23.124;2023-02-23T05:33:10;96955.78;;;8.49;58.30
39411;BME280;26579;43.238;23.124;2023-02-23T05:35:38;96957.59;;;8.59;58.31
39411;BME280;26579;43.238;23.124;2023-02-23T05:38:04;96949.56;;;8.51;58.53
39411;BME280;26579;43.238;23.124;2023-02-23T05:40:30;96959.69;;;8.54;58.23
39411;BME280;26579;43.238;23.124;2023-02-23T05:42:59;96951.41;;;8.49;58.23
39411;BME280;26579;43.238;23.124;2023-02-23T05:45:24;96963.03;;;8.56;59.39
39411;BME280;26579;43.238;23.124;2023-02-23T05:47:50;96974.94;;;8.59;58.71
39411;BME280;26579;43.238;23.124;2023-02-23T05:50:16;96981.22;;;8.68;59.55
39411;BME280;26579;43.238;23.124;2023-02-23T05:52:42;96978.13;;;8.63;59.62
39411;BME280;26579;43.238;23.124;2023-02-23T05:55:09;96977.72;;;8.45;60.49
39411;BME280;26579;43.238;23.124;2023-02-23T05:57:37;96982.19;;;8.43;60.60
39411;BME280;26579;43.238;23.124;2023-02-23T06:00:04;96991.41;;;8.47;61.14
39411;BME280;26579;43.238;23.124;2023-02-23T06:02:30;97001.66;;;8.48;60.76
39411;BME280;26579;43.238;23.124;2023-02-23T06:04:56;97010.19;;;8.50;61.15
39411;BME280;26579;43.238;23.124;2023-02-23T06:07:22;96995.66;;;8.48;60.97
39411;BME280;26579;43.238;23.124;2023-02-23T06:09:48;97005.97;;;8.60;60.62
39411;BME280;26579;43.238;23.124;2023-02-23T06:12:13;96999.56;;;8.53;60.78
39411;BME280;26579;43.238;23.124;2023-02-23T06:14:39;96999.34;;;8.56;60.65
39411;BME280;26579;43.238;23.124;2023-02-23T06:17:05;97015.56;;;8.71;60.07
39411;BME280;26579;43.238;23.124;2023-02-23T06:19:31;97002.00;;;9.03;58.99
39411;BME280;26579;43.238;23.124;2023-02-23T06:21:57;97005.38;;;9.95;55.75
39411;BME280;26579;43.238;23.124;2023-02-23T06:24:23;96999.94;;;11.27;52.03
39411;BME280;26579;43.238;23.124;2023-02-23T06:26:49;97016.47;;;12.58;48.04
39411;BME280;26579;43.238;23.124;2023-02-23T06:29:16;97014.63;;;13.93;44.46
39411;BME280;26579;43.238;23.124;2023-02-23T06:31:41;97015.53;;;15.11;41.70
39411;BME280;26579;43.238;23.124;2023-02-23T06:34:08;97000.09;;;15.78;39.66
39411;BME280;26579;43.238;23.124;2023-02-23T06:36:34;97021.22;;;16.53;38.20
39411;BME280;26579;43.238;23.124;2023-02-23T06:39:00;97018.31;;;17.30;36.44
39411;BME280;26579;43.238;23.124;2023-02-23T06:41:26;97016.25;;;18.37;34.77
39411;BME280;26579;43.238;23.124;2023-02-23T06:43:51;97013.13;;;18.64;34.08
39411;BME280;26579;43.238;23.124;2023-02-23T06:46:18;97017.41;;;18.73;33.61
39411;BME280;26579;43.238;23.124;2023-02-23T06:48:44;97014.63;;;18.90;33.51
39411;BME280;26579;43.238;23.124;2023-02-23T06:51:10;97018.88;;;18.68;33.20
39411;BME280;26579;43.238;23.124;2023-02-23T06:53:35;97021.94;;;19.63;32.28
39411;BME280;26579;43.238;23.124;2023-02-23T06:56:02;97018.41;;;20.01;31.55
39411;BME280;26579;43.238;23.124;2023-02-23T06:58:29;97012.69;;;19.44;32.11
39411;BME280;26579;43.238;23.124;2023-02-23T07:00:55;97000.69;;;19.04;32.84
39411;BME280;26579;43.238;23.124;2023-02-23T07:03:22;97019.38;;;19.55;32.27
39411;BME280;26579;43.238;23.124;2023-02-23T07:05:48;97017.72;;;18.93;33.21
39411;BME280;26579;43.238;23.124;2023-02-23T07:08:15;97016.34;;;18.51;33.53
39411;BME280;26579;43.238;23.124;2023-02-23T07:10:41;97019.47;;;17.43;35.58
39411;BME280;26579;43.238;23.124;2023-02-23T07:13:07;97001.28;;;17.98;34.75
39411;BME280;26579;43.238;23.124;2023-02-23T07:15:36;96992.31;;;19.00;33.26
39411;BME280;26579;43.238;23.124;2023-02-23T07:18:02;96998.00;;;19.80;31.93
39411;BME280;26579;43.238;23.124;2023-02-23T07:20:28;97017.75;;;19.31;32.28
39411;BME280;26579;43.238;23.124;2023-02-23T07:22:54;97013.00;;;19.50;32.20
39411;BME280;26579;43.238;23.124;2023-02-23T07:25:20;97009.19;;;18.91;33.01
39411;BME280;26579;43.238;23.124;2023-02-23T07:27:45;97002.22;;;18.44;33.70
39411;BME280;26579;43.238;23.124;2023-02-23T07:30:12;97004.47;;;18.78;33.47
39411;BME280;26579;43.238;23.124;2023-02-23T07:32:38;97016.53;;;19.19;33.12
39411;BME280;26579;43.238;23.124;2023-02-23T07:35:04;97013.28;;;19.17;32.76
39411;BME280;26579;43.238;23.124;2023-02-23T07:37:30;97021.69;;;19.88;31.42
39411;BME280;26579;43.238;23.124;2023-02-23T07:39:56;97005.84;;;19.20;32.72
39411;BME280;26579;43.238;23.124;2023-02-23T07:42:22;97010.50;;;19.33;32.76
39411;BME280;26579;43.238;23.124;2023-02-23T07:44:47;97005.25;;;19.63;32.42
39411;BME280;26579;43.238;23.124;2023-02-23T07:47:13;97020.97;;;20.09;31.51
39411;BME280;26579;43.238;23.124;2023-02-23T07:49:39;97012.88;;;19.96;31.65
39411;BME280;26579;43.238;23.124;2023-02-23T07:52:04;97014.75;;;19.34;32.88
39411;BME280;26579;43.238;23.124;2023-02-23T07:54:30;97020.94;;;19.27;33.20
39411;BME280;26579;43.238;23.124;2023-02-23T07:56:56;97020.97;;;19.41;33.16
39411;BME280;26579;43.238;23.124;2023-02-23T07:59:22;97023.56;;;19.50;32.80
39411;BME280;26579;43.238;23.124;2023-02-23T08:01:48;97020.19;;;19.56;32.64
39411;BME280;26579;43.238;23.124;2023-02-23T08:04:13;97028.09;;;19.56;32.69
39411;BME280;26579;43.238;23.124;2023-02-23T08:06:39;97022.81;;;19.56;32.82
39411;BME280;26579;43.238;23.124;2023-02-23T08:09:05;97030.00;;;19.47;32.83
39411;BME280;26579;43.238;23.124;2023-02-23T08:11:31;97022.88;;;20.15;32.27
39411;BME280;26579;43.238;23.124;2023-02-23T08:13:57;97029.53;;;19.29;32.74
39411;BME280;26579;43.238;23.124;2023-02-23T08:16:23;97019.50;;;19.77;32.01
39411;BME280;26579;43.238;23.124;2023-02-23T08:18:48;97034.69;;;20.49;31.10
39411;BME280;26579;43.238;23.124;2023-02-23T08:21:14;97025.16;;;19.88;31.89
39411;BME280;26579;43.238;23.124;2023-02-23T08:23:40;97032.09;;;20.04;31.71
39411;BME280;26579;43.238;23.124;2023-02-23T08:26:05;97035.50;;;20.64;30.96
39411;BME280;26579;43.238;23.124;2023-02-23T08:28:31;97020.44;;;20.65;30.78
39411;BME280;26579;43.238;23.124;2023-02-23T08:30:57;97040.44;;;20.38;31.22
39411;BME280;26579;43.238;23.124;2023-02-23T08:33:23;97031.31;;;21.62;29.98
39411;BME280;26579;43.238;23.124;2023-02-23T08:35:50;97035.53;;;22.54;28.53
39411;BME280;26579;43.238;23.124;2023-02-23T08:38:15;97039.97;;;23.09;27.57
39411;BME280;26579;43.238;23.124;2023-02-23T08:40:41;97039.28;;;21.19;29.83
39411;BME280;26579;43.238;23.124;2023-02-23T08:43:07;97037.31;;;20.64;30.81
39411;BME280;26579;43.238;23.124;2023-02-23T08:45:32;97034.25;;;21.24;30.06
39411;BME280;26579;43.238;23.124;2023-02-23T08:47:58;97024.06;;;21.71;29.44
39411;BME280;26579;43.238;23.124;2023-02-23T08:50:23;97037.06;;;22.01;28.74
39411;BME280;26579;43.238;23.124;2023-02-23T08:52:49;97038.06;;;21.37;30.04
39411;BME280;26579;43.238;23.124;2023-02-23T08:55:15;97032.94;;;21.63;29.56
39411;BME280;26579;43.238;23.124;2023-02-23T08:57:41;97034.59;;;22.34;28.66
39411;BME280;26579;43.238;23.124;2023-02-23T09:00:07;97045.66;;;22.03;29.06
39411;BME280;26579;43.238;23.124;2023-02-23T09:02:33;97037.19;;;22.69;28.45
39411;BME280;26579;43.238;23.124;2023-02-23T09:04:58;97037.72;;;23.32;27.25
39411;BME280;26579;43.238;23.124;2023-02-23T09:07:24;97044.69;;;23.46;27.20
39411;BME280;26579;43.238;23.124;2023-02-23T09:09:54;97046.78;;;23.71;26.94
39411;BME280;26579;43.238;23.124;2023-02-23T09:12:20;97045.41;;;22.94;28.10
39411;BME280;26579;43.238;23.124;2023-02-23T09:14:46;97049.59;;;23.16;27.93
39411;BME280;26579;43.238;23.124;2023-02-23T09:17:12;97048.97;;;23.41;27.14
39411;BME280;26579;43.238;23.124;2023-02-23T09:19:38;97047.56;;;23.45;27.08
39411;BME280;26579;43.238;23.124;2023-02-23T09:22:04;97050.41;;;23.57;26.79
39411;BME280;26579;43.238;23.124;2023-02-23T09:24:30;97040.41;;;23.25;27.01
39411;BME280;26579;43.238;23.124;2023-02-23T09:26:55;97039.69;;;22.90;27.66
39411;BME280;26579;43.238;23.124;2023-02-23T09:29:21;97055.31;;;22.58;28.51
39411;BME280;26579;43.238;23.124;2023-02-23T09:31:47;97053.13;;;21.92;28.72
39411;BME280;26579;43.238;23.124;2023-02-23T09:34:12;97046.06;;;22.34;29.26
39411;BME280;26579;43.238;23.124;2023-02-23T09:36:38;97057.69;;;22.95;28.09
39411;BME280;26579;43.238;23.124;2023-02-23T09:39:04;97057.13;;;23.13;28.32
39411;BME280;26579;43.238;23.124;2023-02-23T09:41:49;97046.53;;;23.26;27.59
39411;BME280;26579;43.238;23.124;2023-02-23T09:49:49;97069.28;;;20.84;30.71
39411;BME280;26579;43.238;23.124;2023-02-23T09:52:19;97072.34;;;20.51;31.88
39411;BME280;26579;43.238;23.124;2023-02-23T09:54:47;97074.09;;;20.95;31.10
39411;BME280;26579;43.238;23.124;2023-02-23T09:57:21;97065.69;;;20.91;30.61
39411;BME280;26579;43.238;23.124;2023-02-23T09:59:50;97070.22;;;20.76;31.69
39411;BME280;26579;43.238;23.124;2023-02-23T10:02:37;97063.88;;;21.56;29.86
39411;BME280;26579;43.238;23.124;2023-02-23T10:05:07;97060.38;;;21.77;29.63
39411;BME280;26579;43.238;23.124;2023-02-23T10:07:54;97072.34;;;21.45;30.21
39411;BME280;26579;43.238;23.124;2023-02-23T10:13:19;97072.25;;;19.70;32.68
39411;BME280;26579;43.238;23.124;2023-02-23T10:15:51;97062.06;;;20.11;32.75
39411;BME280;26579;43.238;23.124;2023-02-23T10:18:31;97050.28;;;20.58;32.03
39411;BME280;26579;43.238;23.124;2023-02-23T10:21:17;97067.72;;;20.23;32.41
39411;BME280;26579;43.238;23.124;2023-02-23T10:26:42;97052.75;;;20.01;31.81
39411;BME280;26579;43.238;23.124;2023-02-23T10:29:20;97063.31;;;20.60;31.78
39411;BME280;26579;43.238;23.124;2023-02-23T10:31:51;97060.06;;;19.99;32.34
39411;BME280;26579;43.238;23.124;2023-02-23T10:34:18;97057.88;;;20.17;32.76
39411;BME280;26579;43.238;23.124;2023-02-23T10:36:52;97059.41;;;19.67;32.69
39411;BME280;26579;43.238;23.124;2023-02-23T10:39:22;97058.66;;;18.89;34.13
39411;BME280;26579;43.238;23.124;2023-02-23T10:41:47;97056.34;;;18.55;34.61
39411;BME280;26579;43.238;23.124;2023-02-23T10:44:21;97062.34;;;18.41;35.10
39411;BME280;26579;43.238;23.124;2023-02-23T10:46:53;97068.13;;;17.64;36.39
39411;BME280;26579;43.238;23.124;2023-02-23T10:49:24;97046.97;;;17.16;37.12
39411;BME280;26579;43.238;23.124;2023-02-23T10:51:51;97058.47;;;17.40;37.16
39411;BME280;26579;43.238;23.124;2023-02-23T10:54:38;97058.09;;;17.68;36.97
39411;BME280;26579;43.238;23.124;2023-02-23T10:57:05;97040.00;;;17.48;37.28
39411;BME280;26579;43.238;23.124;2023-02-23T10:59:32;97057.44;;;17.65;36.77
39411;BME280;26579;43.238;23.124;2023-02-23T11:01:58;97063.06;;;17.30;37.56
39411;BME280;26579;43.238;23.124;2023-02-23T11:04:26;97053.53;;;16.96;37.88
39411;BME280;26579;43.238;23.124;2023-02-23T11:07:16;97060.66;;;16.69;38.43
39411;BME280;26579;43.238;23.124;2023-02-23T11:09:42;97061.41;;;16.88;38.73
39411;BME280;26579;43.238;23.124;2023-02-23T11:14:57;97052.53;;;17.22;37.74
39411;BME280;26579;43.238;23.124;2023-02-23T11:17:24;97055.78;;;16.83;38.31
39411;BME280;26579;43.238;23.124;2023-02-23T11:19:50;97050.28;;;16.09;39.49
39411;BME280;26579;43.238;23.124;2023-02-23T11:22:25;97047.31;;;15.78;40.31
39411;BME280;26579;43.238;23.124;2023-02-23T11:24:55;97060.09;;;15.73;40.63
39411;BME280;26579;43.238;23.124;2023-02-23T11:27:23;97060.94;;;16.07;40.27
39411;BME280;26579;43.238;23.124;2023-02-23T11:29:51;97055.59;;;15.65;40.66
39411;BME280;26579;43.238;23.124;2023-02-23T11:32:25;97064.31;;;15.92;40.36
39411;BME280;26579;43.238;23.124;2023-02-23T11:37:37;97059.38;;;15.97;40.35
39411;BME280;26579;43.238;23.124;2023-02-23T11:42:55;97062.31;;;15.94;39.92
39411;BME280;26579;43.238;23.124;2023-02-23T11:45:24;97053.28;;;15.88;40.59
39411;BME280;26579;43.238;23.124;2023-02-23T11:47:57;97055.53;;;15.57;41.59
39411;BME280;26579;43.238;23.124;2023-02-23T11:50:33;97059.69;;;15.86;40.66
39411;BME280;26579;43.238;23.124;2023-02-23T11:53:05;97059.19;;;15.64;40.68
39411;BME280;26579;43.238;23.124;2023-02-23T11:55:37;97056.78;;;15.45;41.04
39411;BME280;26579;43.238;23.124;2023-02-23T12:01:07;97067.06;;;15.20;41.41
39411;BME280;26579;43.238;23.124;2023-02-23T12:03:34;97047.78;;;15.29;42.16
39411;BME280;26579;43.238;23.124;2023-02-23T12:06:00;97060.44;;;15.78;40.80
39411;BME280;26579;43.238;23.124;2023-02-23T12:08:40;97046.66;;;15.32;40.91
39411;BME280;26579;43.238;23.124;2023-02-23T12:11:18;97054.53;;;15.58;40.71
39411;BME280;26579;43.238;23.124;2023-02-23T12:13:52;97057.47;;;15.73;40.32
39411;BME280;26579;43.238;23.124;2023-02-23T12:16:25;97054.03;;;15.54;40.96
39411;BME280;26579;43.238;23.124;2023-02-23T12:19:25;97062.78;;;15.63;40.73
39411;BME280;26579;43.238;23.124;2023-02-23T12:27:10;97059.44;;;15.53;41.29
39411;BME280;26579;43.238;23.124;2023-02-23T12:30:07;97054.09;;;15.36;41.04
39411;BME280;26579;43.238;23.124;2023-02-23T12:35:32;97050.88;;;14.89;41.93
39411;BME280;26579;43.238;23.124;2023-02-23T12:38:27;97039.00;;;14.49;42.79
39411;BME280;26579;43.238;23.124;2023-02-23T12:41:10;97066.16;;;14.76;42.89
39411;BME280;26579;43.238;23.124;2023-02-23T12:43:49;97060.19;;;15.01;42.58
39411;BME280;26579;43.238;23.124;2023-02-23T12:46:38;97057.94;;;15.24;41.92
39411;BME280;26579;43.238;23.124;2023-02-23T12:49:21;97059.63;;;14.62;42.36
39411;BME280;26579;43.238;23.124;2023-02-23T12:52:39;97055.44;;;14.41;42.89
39411;BME280;26579;43.238;23.124;2023-02-23T12:54:45;97054.47;;;14.42;42.96
39411;BME280;26579;43.238;23.124;2023-02-23T12:57:19;97066.91;;;14.68;42.86
39411;BME280;26579;43.238;23.124;2023-02-23T13:00:44;97056.13;;;14.89;42.62
39411;BME280;26579;43.238;23.124;2023-02-23T13:02:51;97069.47;;;15.13;41.63
39411;BME280;26579;43.238;23.124;2023-02-23T13:05:30;97058.53;;;15.00;41.83
39411;BME280;26579;43.238;23.124;2023-02-23T13:13:24;97070.34;;;14.86;42.32
39411;BME280;26579;43.238;23.124;2023-02-23T13:16:15;97077.34;;;14.78;42.33
39411;BME280;26579;43.238;23.124;2023-02-23T13:21:33;97090.59;;;14.11;43.55
39411;BME280;26579;43.238;23.124;2023-02-23T13:24:01;97092.66;;;14.08;43.68
39411;BME280;26579;43.238;23.124;2023-02-23T13:26:45;97083.28;;;13.77;44.48
39411;BME280;26579;43.238;23.124;2023-02-23T13:31:45;97090.63;;;13.54;45.31
39411;BME280;26579;43.238;23.124;2023-02-23T13:34:19;97094.59;;;13.49;45.32
39411;BME280;26579;43.238;23.124;2023-02-23T13:36:45;97095.56;;;13.19;46.15
39411;BME280;26579;43.238;23.124;2023-02-23T13:42:25;97095.53;;;12.80;47.82
39411;BME280;26579;43.238;23.124;2023-02-23T13:45:00;97097.59;;;12.66;47.75
39411;BME280;26579;43.238;23.124;2023-02-23T13:47:52;97101.63;;;12.90;47.88
39411;BME280;26579;43.238;23.124;2023-02-23T13:50:30;97098.31;;;12.98;47.51
39411;BME280;26579;43.238;23.124;2023-02-23T13:53:05;97091.72;;;13.13;47.04
39411;BME280;26579;43.238;23.124;2023-02-23T13:55:35;97102.16;;;12.84;47.31
39411;BME280;26579;43.238;23.124;2023-02-23T14:00:29;97097.09;;;12.32;49.32
39411;BME280;26579;43.238;23.124;2023-02-23T14:03:02;97097.50;;;12.28;49.45
39411;BME280;26579;43.238;23.124;2023-02-23T14:05:29;97103.47;;;12.49;49.09
39411;BME280;26579;43.238;23.124;2023-02-23T14:08:00;97106.50;;;12.54;48.58
39411;BME280;26579;43.238;23.124;2023-02-23T14:10:35;97084.19;;;12.31;49.10
39411;BME280;26579;43.238;23.124;2023-02-23T14:16:06;97101.66;;;12.09;50.35
39411;BME280;26579;43.238;23.124;2023-02-23T14:18:32;97098.00;;;12.21;49.88
39411;BME280;26579;43.238;23.124;2023-02-23T14:21:12;97107.81;;;12.39;49.87
39411;BME280;26579;43.238;23.124;2023-02-23T14:24:00;97115.44;;;12.61;49.57
39411;BME280;26579;43.238;23.124;2023-02-23T14:29:21;97105.59;;;12.84;48.13
39411;BME280;26579;43.238;23.124;2023-02-23T14:32:02;97107.81;;;12.89;47.99
39411;BME280;26579;43.238;23.124;2023-02-23T14:37:30;97100.84;;;12.39;49.38
39411;BME280;26579;43.238;23.124;2023-02-23T14:40:09;97104.53;;;12.37;49.77
39411;BME280;26579;43.238;23.124;2023-02-23T14:42:37;97101.91;;;12.37;49.83